sensor_id;sensor_type;location;lat;lon;timestamp;P1;durP1;ratioP1;P2;durP2;ratioP2
62457;SDS011;48509;52.122;5.250;2023-08-30T00:00:40;15.4;;;12.9;;
62457;SDS011;48509;52.122;5.250;2023-08-30T00:03:53;15.1;;;12.7;;
62457;SDS011;48509;52.122;5.250;2023-08-30T00:05:29;18.5;;;13.4;;
62457;SDS011;48509;52.122;5.250;2023-08-30T00:07:05;15.9;;;12.8;;
62457;SDS011;48509;52.122;5.250;2023-08-30T00:10:18;14.6;;;12.7;;
62457;SDS011;48509;52.122;5.250;2023-08-30T00:11:54;15.1;;;13.5;;
62457;SDS011;48509;52.122;5.250;2023-08-30T00:13:30;16.0;;;14.3;;
62457;SDS011;48509;52.122;5.250;2023-08-30T00:15:07;16.8;;;14.2;;
62457;SDS011;48509;52.122;5.250;2023-08-30T00:18:20;18.0;;;14.9;;
62457;SDS011;48509;52.122;5.250;2023-08-30T00:19:56;17.2;;;15.4;;
62457;SDS011;48509;52.122;5.250;2023-08-30T00:21:33;21.2;;;15.6;;
62457;SDS011;48509;52.122;5.250;2023-08-30T00:24:46;17.41;;;14.0;;
62457;SDS011;48509;52.122;5.250;2023-08-30T00:26:22;17.3;;;15.2;;
62457;SDS011;48509;52.122;5.250;2023-08-30T00:27:58;17.0;;;15.1;;
62457;SDS011;48509;52.122;5.250;2023-08-30T00:31:10;16.9;;;15.1;;
62457;SDS011;48509;52.122;5.250;2023-08-30T00:32:46;18.8;;;15.7;;
62457;SDS011;48509;52.122;5.250;2023-08-30T00:34:22;20.0;;;15.3;;
62457;SDS011;48509;52.122;5.250;2023-08-30T00:35:58;18.91;;;14.7;;
62457;SDS011;48509;52.122;5.250;2023-08-30T00:39:12;16.7;;;14.9;;
62457;SDS011;48509;52.122;5.250;2023-08-30T00:40:48;17.7;;;14.3;;
62457;SDS011;48509;52.122;5.250;2023-08-30T00:42:24;18.11;;;15.0;;
62457;SDS011;48509;52.122;5.250;2023-08-30T00:45:37;17.41;;;13.3;;
62457;SDS011;48509;52.122;5.250;2023-08-30T00:47:15;16.3;;;13.5;;
62457;SDS011;48509;52.122;5.250;2023-08-30T00:48:51;16.11;;;14.2;;
62457;SDS011;48509;52.122;5.250;2023-08-30T00:52:05;18.0;;;15.3;;
62457;SDS011;48509;52.122;5.250;2023-08-30T00:53:45;17.0;;;14.4;;
62457;SDS011;48509;52.122;5.250;2023-08-30T00:55:22;16.11;;;14.3;;
62457;SDS011;48509;52.122;5.250;2023-08-30T00:56:58;19.3;;;15.5;;
62457;SDS011;48509;52.122;5.250;2023-08-30T01:00:13;18.0;;;13.6;;
62457;SDS011;48509;52.122;5.250;2023-08-30T01:01:49;17.0;;;14.0;;
62457;SDS011;48509;52.122;5.250;2023-08-30T01:03:26;18.0;;;14.9;;
62457;SDS011;48509;52.122;5.250;2023-08-30T01:06:38;17.61;;;14.4;;
62457;SDS011;48509;52.122;5.250;2023-08-30T01:08:15;16.2;;;13.7;;
62457;SDS011;48509;52.122;5.250;2023-08-30T01:09:51;16.2;;;13.4;;
62457;SDS011;48509;52.122;5.250;2023-08-30T01:13:12;15.5;;;13.4;;
62457;SDS011;48509;52.122;5.250;2023-08-30T01:14:56;16.5;;;13.8;;
62457;SDS011;48509;52.122;5.250;2023-08-30T01:16:36;16.8;;;15.0;;
62457;SDS011;48509;52.122;5.250;2023-08-30T01:18:14;16.0;;;13.4;;
62457;SDS011;48509;52.122;5.250;2023-08-30T01:19:56;19.8;;;14.6;;
62457;SDS011;48509;52.122;5.250;2023-08-30T01:23:28;17.8;;;14.4;;
62457;SDS011;48509;52.122;5.250;2023-08-30T01:25:17;18.8;;;13.9;;
62457;SDS011;48509;52.122;5.250;2023-08-30T01:27:13;18.8;;;13.9;;
62457;SDS011;48509;52.122;5.250;2023-08-30T01:28:51;16.4;;;13.3;;
62457;SDS011;48509;52.122;5.250;2023-08-30T01:30:29;15.5;;;12.6;;
62457;SDS011;48509;52.122;5.250;2023-08-30T01:33:45;15.9;;;13.5;;
62457;SDS011;48509;52.122;5.250;2023-08-30T01:35:22;16.11;;;13.8;;
62457;SDS011;48509;52.122;5.250;2023-08-30T01:37:00;16.0;;;12.7;;
62457;SDS011;48509;52.122;5.250;2023-08-30T01:40:16;15.9;;;12.1;;
62457;SDS011;48509;52.122;5.250;2023-08-30T01:41:54;16.2;;;11.7;;
62457;SDS011;48509;52.122;5.250;2023-08-30T01:43:31;16.9;;;12.6;;
62457;SDS011;48509;52.122;5.250;2023-08-30T01:45:09;14.3;;;12.8;;
62457;SDS011;48509;52.122;5.250;2023-08-30T01:48:24;16.5;;;13.4;;
62457;SDS011;48509;52.122;5.250;2023-08-30T01:50:02;15.4;;;13.8;;
62457;SDS011;48509;52.122;5.250;2023-08-30T01:51:40;16.8;;;13.2;;
62457;SDS011;48509;52.122;5.250;2023-08-30T01:54:53;15.0;;;13.4;;
62457;SDS011;48509;52.122;5.250;2023-08-30T01:56:29;17.11;;;14.0;;
62457;SDS011;48509;52.122;5.250;2023-08-30T01:58:06;15.5;;;12.3;;
62457;SDS011;48509;52.122;5.250;2023-08-30T01:59:42;20.0;;;13.1;;
62457;SDS011;48509;52.122;5.250;2023-08-30T02:02:55;19.61;;;14.5;;
62457;SDS011;48509;52.122;5.250;2023-08-30T02:04:32;17.61;;;13.4;;
62457;SDS011;48509;52.122;5.250;2023-08-30T02:06:08;16.0;;;12.9;;
62457;SDS011;48509;52.122;5.250;2023-08-30T02:09:35;18.11;;;13.0;;
62457;SDS011;48509;52.122;5.250;2023-08-30T02:11:23;16.11;;;13.1;;
62457;SDS011;48509;52.122;5.250;2023-08-30T02:13:03;14.6;;;11.6;;
62457;SDS011;48509;52.122;5.250;2023-08-30T02:14:41;17.0;;;13.2;;
62457;SDS011;48509;52.122;5.250;2023-08-30T02:16:23;16.61;;;13.0;;
62457;SDS011;48509;52.122;5.250;2023-08-30T02:19:41;19.7;;;12.7;;
62457;SDS011;48509;52.122;5.250;2023-08-30T02:21:18;14.9;;;11.8;;
62457;SDS011;48509;52.122;5.250;2023-08-30T02:22:57;15.3;;;13.3;;
62457;SDS011;48509;52.122;5.250;2023-08-30T02:26:10;18.3;;;13.2;;
62457;SDS011;48509;52.122;5.250;2023-08-30T02:27:46;14.5;;;12.8;;
62457;SDS011;48509;52.122;5.250;2023-08-30T02:29:22;15.4;;;12.6;;
62457;SDS011;48509;52.122;5.250;2023-08-30T02:30:59;17.2;;;13.9;;
62457;SDS011;48509;52.122;5.250;2023-08-30T02:34:11;18.11;;;14.6;;
62457;SDS011;48509;52.122;5.250;2023-08-30T02:35:47;15.9;;;12.7;;
62457;SDS011;48509;52.122;5.250;2023-08-30T02:37:23;18.7;;;13.5;;
62457;SDS011;48509;52.122;5.250;2023-08-30T02:40:35;16.8;;;14.1;;
62457;SDS011;48509;52.122;5.250;2023-08-30T02:42:11;18.11;;;14.3;;
62457;SDS011;48509;52.122;5.250;2023-08-30T02:43:48;18.41;;;14.3;;
62457;SDS011;48509;52.122;5.250;2023-08-30T02:47:00;17.8;;;15.2;;
62457;SDS011;48509;52.122;5.250;2023-08-30T02:48:36;19.41;;;14.1;;
62457;SDS011;48509;52.122;5.250;2023-08-30T02:50:12;16.11;;;14.1;;
62457;SDS011;48509;52.122;5.250;2023-08-30T02:53:24;14.0;;;12.3;;
62457;SDS011;48509;52.122;5.250;2023-08-30T02:55:00;17.11;;;13.9;;
62457;SDS011;48509;52.122;5.250;2023-08-30T02:56:37;19.5;;;14.8;;
62457;SDS011;48509;52.122;5.250;2023-08-30T02:58:14;16.2;;;13.8;;
62457;SDS011;48509;52.122;5.250;2023-08-30T03:01:26;16.4;;;13.4;;
62457;SDS011;48509;52.122;5.250;2023-08-30T03:03:02;17.11;;;14.9;;
62457;SDS011;48509;52.122;5.250;2023-08-30T03:04:39;20.7;;;15.6;;
62457;SDS011;48509;52.122;5.250;2023-08-30T03:07:52;20.5;;;15.9;;
62457;SDS011;48509;52.122;5.250;2023-08-30T03:09:29;21.1;;;15.5;;
62457;SDS011;48509;52.122;5.250;2023-08-30T03:11:08;20.9;;;15.7;;
62457;SDS011;48509;52.122;5.250;2023-08-30T03:14:21;19.3;;;16.5;;
62457;SDS011;48509;52.122;5.250;2023-08-30T03:15:57;22.0;;;17.0;;
62457;SDS011;48509;52.122;5.250;2023-08-30T03:17:32;22.6;;;15.7;;
62457;SDS011;48509;52.122;5.250;2023-08-30T03:19:10;20.0;;;16.3;;
62457;SDS011;48509;52.122;5.250;2023-08-30T03:22:22;22.3;;;17.11;;
62457;SDS011;48509;52.122;5.250;2023-08-30T03:23:59;20.8;;;16.11;;
62457;SDS011;48509;52.122;5.250;2023-08-30T03:25:35;21.4;;;17.0;;
62457;SDS011;48509;52.122;5.250;2023-08-30T03:28:47;23.6;;;18.2;;
62457;SDS011;48509;52.122;5.250;2023-08-30T03:30:23;21.8;;;17.41;;
62457;SDS011;48509;52.122;5.250;2023-08-30T03:31:59;19.7;;;16.5;;
62457;SDS011;48509;52.122;5.250;2023-08-30T03:35:11;22.5;;;17.11;;
62457;SDS011;48509;52.122;5.250;2023-08-30T03:36:47;21.6;;;18.0;;
62457;SDS011;48509;52.122;5.250;2023-08-30T03:38:24;22.5;;;18.7;;
62457;SDS011;48509;52.122;5.250;2023-08-30T03:40:00;24.9;;;19.3;;
62457;SDS011;48509;52.122;5.250;2023-08-30T03:43:12;22.3;;;17.2;;
62457;SDS011;48509;52.122;5.250;2023-08-30T03:44:48;25.0;;;18.91;;
62457;SDS011;48509;52.122;5.250;2023-08-30T03:46:24;24.1;;;18.8;;
62457;SDS011;48509;52.122;5.250;2023-08-30T03:49:36;24.5;;;18.41;;
62457;SDS011;48509;52.122;5.250;2023-08-30T03:51:12;23.4;;;18.5;;
62457;SDS011;48509;52.122;5.250;2023-08-30T03:52:49;29.3;;;18.5;;
62457;SDS011;48509;52.122;5.250;2023-08-30T03:56:01;26.4;;;19.7;;
62457;SDS011;48509;52.122;5.250;2023-08-30T03:57:37;22.3;;;19.91;;
62457;SDS011;48509;52.122;5.250;2023-08-30T03:59:13;26.2;;;21.1;;
62457;SDS011;48509;52.122;5.250;2023-08-30T04:02:25;27.1;;;21.8;;
62457;SDS011;48509;52.122;5.250;2023-08-30T04:04:01;27.1;;;20.6;;
62457;SDS011;48509;52.122;5.250;2023-08-30T04:05:38;27.3;;;21.1;;
62457;SDS011;48509;52.122;5.250;2023-08-30T04:07:14;28.3;;;22.2;;
62457;SDS011;48509;52.122;5.250;2023-08-30T04:10:26;27.4;;;21.0;;
62457;SDS011;48509;52.122;5.250;2023-08-30T04:12:02;28.4;;;20.5;;
62457;SDS011;48509;52.122;5.250;2023-08-30T04:13:39;26.9;;;20.7;;
62457;SDS011;48509;52.122;5.250;2023-08-30T04:16:51;25.2;;;20.9;;
62457;SDS011;48509;52.122;5.250;2023-08-30T04:18:28;25.4;;;20.9;;
62457;SDS011;48509;52.122;5.250;2023-08-30T04:20:05;27.1;;;22.1;;
62457;SDS011;48509;52.122;5.250;2023-08-30T04:23:19;26.9;;;21.2;;
62457;SDS011;48509;52.122;5.250;2023-08-30T04:24:55;29.8;;;20.9;;
62457;SDS011;48509;52.122;5.250;2023-08-30T04:26:31;29.8;;;20.9;;
62457;SDS011;48509;52.122;5.250;2023-08-30T04:28:07;29.3;;;23.0;;
62457;SDS011;48509;52.122;5.250;2023-08-30T04:31:19;28.2;;;21.5;;
62457;SDS011;48509;52.122;5.250;2023-08-30T04:32:55;29.1;;;21.3;;
62457;SDS011;48509;52.122;5.250;2023-08-30T04:34:32;33.4;;;22.5;;
62457;SDS011;48509;52.122;5.250;2023-08-30T04:37:44;30.0;;;21.8;;
62457;SDS011;48509;52.122;5.250;2023-08-30T04:39:20;28.2;;;22.6;;
62457;SDS011;48509;52.122;5.250;2023-08-30T04:40:56;27.3;;;20.8;;
62457;SDS011;48509;52.122;5.250;2023-08-30T04:44:09;31.4;;;23.0;;
62457;SDS011;48509;52.122;5.250;2023-08-30T04:45:47;29.3;;;21.1;;
62457;SDS011;48509;52.122;5.250;2023-08-30T04:47:23;29.2;;;20.6;;
62457;SDS011;48509;52.122;5.250;2023-08-30T04:50:36;30.2;;;22.3;;
62457;SDS011;48509;52.122;5.250;2023-08-30T04:52:12;28.6;;;22.2;;
62457;SDS011;48509;52.122;5.250;2023-08-30T04:53:48;29.6;;;21.8;;
62457;SDS011;48509;52.122;5.250;2023-08-30T04:55:24;31.5;;;21.7;;
62457;SDS011;48509;52.122;5.250;2023-08-30T04:58:36;28.7;;;20.6;;
62457;SDS011;48509;52.122;5.250;2023-08-30T05:00:13;28.6;;;21.2;;
62457;SDS011;48509;52.122;5.250;2023-08-30T05:01:49;28.6;;;21.5;;
62457;SDS011;48509;52.122;5.250;2023-08-30T05:05:02;28.6;;;22.2;;
62457;SDS011;48509;52.122;5.250;2023-08-30T05:06:38;28.4;;;21.5;;
62457;SDS011;48509;52.122;5.250;2023-08-30T05:08:14;25.0;;;19.7;;
62457;SDS011;48509;52.122;5.250;2023-08-30T05:11:26;26.0;;;20.2;;
62457;SDS011;48509;52.122;5.250;2023-08-30T05:13:02;25.8;;;19.8;;
62457;SDS011;48509;52.122;5.250;2023-08-30T05:14:38;26.1;;;20.2;;
62457;SDS011;48509;52.122;5.250;2023-08-30T05:16:14;26.5;;;20.8;;
62457;SDS011;48509;52.122;5.250;2023-08-30T05:19:27;28.7;;;20.7;;
62457;SDS011;48509;52.122;5.250;2023-08-30T05:21:04;25.1;;;20.11;;
62457;SDS011;48509;52.122;5.250;2023-08-30T05:22:40;21.9;;;17.91;;
62457;SDS011;48509;52.122;5.250;2023-08-30T05:25:52;26.8;;;20.5;;
62457;SDS011;48509;52.122;5.250;2023-08-30T05:27:28;26.8;;;20.11;;
62457;SDS011;48509;52.122;5.250;2023-08-30T05:29:04;23.5;;;18.3;;
62457;SDS011;48509;52.122;5.250;2023-08-30T05:32:18;22.9;;;18.11;;
62457;SDS011;48509;52.122;5.250;2023-08-30T05:33:54;23.2;;;18.11;;
62457;SDS011;48509;52.122;5.250;2023-08-30T05:35:31;24.2;;;16.8;;
62457;SDS011;48509;52.122;5.250;2023-08-30T05:38:43;26.4;;;17.8;;
62457;SDS011;48509;52.122;5.250;2023-08-30T05:40:19;21.1;;;17.3;;
62457;SDS011;48509;52.122;5.250;2023-08-30T05:41:55;24.9;;;17.8;;
62457;SDS011;48509;52.122;5.250;2023-08-30T05:43:31;24.5;;;16.7;;
62457;SDS011;48509;52.122;5.250;2023-08-30T05:46:45;25.6;;;17.2;;
62457;SDS011;48509;52.122;5.250;2023-08-30T05:48:21;17.8;;;14.9;;
62457;SDS011;48509;52.122;5.250;2023-08-30T05:49:58;21.1;;;15.7;;
62457;SDS011;48509;52.122;5.250;2023-08-30T05:53:10;22.4;;;17.0;;
62457;SDS011;48509;52.122;5.250;2023-08-30T05:54:46;22.5;;;16.8;;
62457;SDS011;48509;52.122;5.250;2023-08-30T05:56:22;24.1;;;15.9;;
62457;SDS011;48509;52.122;5.250;2023-08-30T05:59:36;20.3;;;15.6;;
62457;SDS011;48509;52.122;5.250;2023-08-30T06:01:13;18.7;;;15.3;;
62457;SDS011;48509;52.122;5.250;2023-08-30T06:02:49;17.91;;;14.5;;
62457;SDS011;48509;52.122;5.250;2023-08-30T06:04:25;22.2;;;16.9;;
62457;SDS011;48509;52.122;5.250;2023-08-30T06:07:38;20.9;;;14.9;;
62457;SDS011;48509;52.122;5.250;2023-08-30T06:09:14;20.11;;;15.2;;
62457;SDS011;48509;52.122;5.250;2023-08-30T06:10:50;16.9;;;14.0;;
62457;SDS011;48509;52.122;5.250;2023-08-30T06:14:02;19.91;;;15.6;;
62457;SDS011;48509;52.122;5.250;2023-08-30T06:15:38;19.7;;;16.3;;
62457;SDS011;48509;52.122;5.250;2023-08-30T06:17:14;20.3;;;17.3;;
62457;SDS011;48509;52.122;5.250;2023-08-30T06:20:26;22.9;;;15.3;;
62457;SDS011;48509;52.122;5.250;2023-08-30T06:22:03;21.6;;;16.4;;
62457;SDS011;48509;52.122;5.250;2023-08-30T06:23:41;22.6;;;16.61;;
62457;SDS011;48509;52.122;5.250;2023-08-30T06:25:17;22.5;;;17.5;;
62457;SDS011;48509;52.122;5.250;2023-08-30T06:28:29;24.2;;;17.3;;
62457;SDS011;48509;52.122;5.250;2023-08-30T06:30:06;21.1;;;17.61;;
62457;SDS011;48509;52.122;5.250;2023-08-30T06:31:42;23.0;;;17.61;;
62457;SDS011;48509;52.122;5.250;2023-08-30T06:34:55;24.9;;;19.2;;
62457;SDS011;48509;52.122;5.250;2023-08-30T06:36:32;26.9;;;20.8;;
62457;SDS011;48509;52.122;5.250;2023-08-30T06:38:08;24.0;;;18.2;;
62457;SDS011;48509;52.122;5.250;2023-08-30T06:41:20;29.5;;;21.7;;
62457;SDS011;48509;52.122;5.250;2023-08-30T06:42:56;30.7;;;21.3;;
62457;SDS011;48509;52.122;5.250;2023-08-30T06:44:32;26.8;;;20.3;;
62457;SDS011;48509;52.122;5.250;2023-08-30T06:47:44;28.2;;;19.61;;
62457;SDS011;48509;52.122;5.250;2023-08-30T06:49:20;25.8;;;19.2;;
62457;SDS011;48509;52.122;5.250;2023-08-30T06:50:57;29.0;;;21.5;;
62457;SDS011;48509;52.122;5.250;2023-08-30T06:52:34;25.1;;;18.8;;
62457;SDS011;48509;52.122;5.250;2023-08-30T06:55:46;28.9;;;21.2;;
62457;SDS011;48509;52.122;5.250;2023-08-30T06:57:32;24.5;;;19.41;;
62457;SDS011;48509;52.122;5.250;2023-08-30T06:59:08;24.5;;;18.91;;
62457;SDS011;48509;52.122;5.250;2023-08-30T07:02:21;26.8;;;21.4;;
62457;SDS011;48509;52.122;5.250;2023-08-30T07:03:57;25.7;;;19.5;;
62457;SDS011;48509;52.122;5.250;2023-08-30T07:05:33;25.4;;;19.2;;
62457;SDS011;48509;52.122;5.250;2023-08-30T07:07:09;27.7;;;22.5;;
62457;SDS011;48509;52.122;5.250;2023-08-30T07:10:23;27.5;;;20.5;;
62457;SDS011;48509;52.122;5.250;2023-08-30T07:11:59;26.6;;;19.5;;
62457;SDS011;48509;52.122;5.250;2023-08-30T07:13:35;27.6;;;21.8;;
62457;SDS011;48509;52.122;5.250;2023-08-30T07:16:50;30.3;;;23.2;;
62457;SDS011;48509;52.122;5.250;2023-08-30T07:18:26;25.3;;;19.2;;
62457;SDS011;48509;52.122;5.250;2023-08-30T07:20:02;28.9;;;20.6;;
62457;SDS011;48509;52.122;5.250;2023-08-30T07:23:15;23.0;;;18.91;;
62457;SDS011;48509;52.122;5.250;2023-08-30T07:24:51;26.2;;;19.91;;
62457;SDS011;48509;52.122;5.250;2023-08-30T07:26:28;21.9;;;18.0;;
62457;SDS011;48509;52.122;5.250;2023-08-30T07:31:17;29.5;;;21.8;;
62457;SDS011;48509;52.122;5.250;2023-08-30T07:32:53;23.7;;;18.61;;
62457;SDS011;48509;52.122;5.250;2023-08-30T07:34:29;23.8;;;18.7;;
62457;SDS011;48509;52.122;5.250;2023-08-30T07:37:41;24.9;;;19.11;;
62457;SDS011;48509;52.122;5.250;2023-08-30T07:39:18;24.8;;;19.3;;
62457;SDS011;48509;52.122;5.250;2023-08-30T07:40:54;21.0;;;16.4;;
62457;SDS011;48509;52.122;5.250;2023-08-30T07:44:06;31.6;;;21.8;;
62457;SDS011;48509;52.122;5.250;2023-08-30T07:45:41;25.6;;;19.11;;
62457;SDS011;48509;52.122;5.250;2023-08-30T07:47:18;23.4;;;18.41;;
62457;SDS011;48509;52.122;5.250;2023-08-30T07:50:30;23.3;;;17.61;;
62457;SDS011;48509;52.122;5.250;2023-08-30T07:52:06;23.3;;;17.8;;
62457;SDS011;48509;52.122;5.250;2023-08-30T07:53:43;23.8;;;16.0;;
62457;SDS011;48509;52.122;5.250;2023-08-30T07:55:19;20.9;;;17.0;;
62457;SDS011;48509;52.122;5.250;2023-08-30T07:58:31;22.0;;;18.8;;
62457;SDS011;48509;52.122;5.250;2023-08-30T08:00:07;20.11;;;15.7;;
62457;SDS011;48509;52.122;5.250;2023-08-30T08:01:44;19.7;;;14.5;;
62457;SDS011;48509;52.122;5.250;2023-08-30T08:04:57;20.2;;;15.4;;
62457;SDS011;48509;52.122;5.250;2023-08-30T08:06:34;22.2;;;14.8;;
62457;SDS011;48509;52.122;5.250;2023-08-30T08:08:10;17.61;;;13.2;;
62457;SDS011;48509;52.122;5.250;2023-08-30T08:11:22;16.7;;;13.1;;
62457;SDS011;48509;52.122;5.250;2023-08-30T08:12:58;17.7;;;13.4;;
62457;SDS011;48509;52.122;5.250;2023-08-30T08:14:34;16.3;;;12.8;;
62457;SDS011;48509;52.122;5.250;2023-08-30T08:16:10;16.61;;;12.5;;
62457;SDS011;48509;52.122;5.250;2023-08-30T08:19:23;18.8;;;11.1;;
62457;SDS011;48509;52.122;5.250;2023-08-30T08:20:59;17.3;;;13.2;;
62457;SDS011;48509;52.122;5.250;2023-08-30T08:22:37;15.9;;;11.6;;
62457;SDS011;48509;52.122;5.250;2023-08-30T08:25:49;17.0;;;12.0;;
62457;SDS011;48509;52.122;5.250;2023-08-30T08:27:25;13.3;;;10.7;;
62457;SDS011;48509;52.122;5.250;2023-08-30T08:29:01;17.5;;;12.5;;
62457;SDS011;48509;52.122;5.250;2023-08-30T08:32:13;17.5;;;13.1;;
62457;SDS011;48509;52.122;5.250;2023-08-30T08:33:50;17.0;;;13.0;;
62457;SDS011;48509;52.122;5.250;2023-08-30T08:35:39;14.3;;;11.3;;
62457;SDS011;48509;52.122;5.250;2023-08-30T08:37:15;14.3;;;11.4;;
62457;SDS011;48509;52.122;5.250;2023-08-30T08:40:28;15.9;;;11.6;;
62457;SDS011;48509;52.122;5.250;2023-08-30T08:42:04;15.8;;;11.7;;
62457;SDS011;48509;52.122;5.250;2023-08-30T08:43:41;15.0;;;11.4;;
62457;SDS011;48509;52.122;5.250;2023-08-30T08:46:55;12.1;;;10.8;;
62457;SDS011;48509;52.122;5.250;2023-08-30T08:48:31;12.8;;;9.71;;
62457;SDS011;48509;52.122;5.250;2023-08-30T08:50:14;12.5;;;10.7;;
62457;SDS011;48509;52.122;5.250;2023-08-30T08:51:51;14.0;;;10.8;;
62457;SDS011;48509;52.122;5.250;2023-08-30T08:55:05;11.9;;;9.0;;
62457;SDS011;48509;52.122;5.250;2023-08-30T08:56:42;14.4;;;10.3;;
62457;SDS011;48509;52.122;5.250;2023-08-30T08:58:19;13.9;;;9.0;;
62457;SDS011;48509;52.122;5.250;2023-08-30T09:01:32;14.9;;;10.9;;
62457;SDS011;48509;52.122;5.250;2023-08-30T09:03:10;11.4;;;9.6;;
62457;SDS011;48509;52.122;5.250;2023-08-30T09:04:46;12.6;;;10.4;;
62457;SDS011;48509;52.122;5.250;2023-08-30T09:06:22;12.7;;;9.31;;
62457;SDS011;48509;52.122;5.250;2023-08-30T09:09:38;12.1;;;8.81;;
62457;SDS011;48509;52.122;5.250;2023-08-30T09:11:14;10.8;;;8.9;;
62457;SDS011;48509;52.122;5.250;2023-08-30T09:12:50;16.0;;;10.9;;
62457;SDS011;48509;52.122;5.250;2023-08-30T09:16:02;11.6;;;10.0;;
62457;SDS011;48509;52.122;5.250;2023-08-30T09:17:46;14.3;;;10.6;;
62457;SDS011;48509;52.122;5.250;2023-08-30T09:19:22;12.8;;;9.4;;
62457;SDS011;48509;52.122;5.250;2023-08-30T09:21:04;14.7;;;10.0;;
62457;SDS011;48509;52.122;5.250;2023-08-30T09:24:19;10.9;;;8.81;;
62457;SDS011;48509;52.122;5.250;2023-08-30T09:25:55;12.2;;;9.81;;
62457;SDS011;48509;52.122;5.250;2023-08-30T09:27:31;10.21;;;9.21;;
62457;SDS011;48509;52.122;5.250;2023-08-30T09:30:48;13.4;;;11.6;;
62457;SDS011;48509;52.122;5.250;2023-08-30T09:32:24;14.2;;;12.5;;
62457;SDS011;48509;52.122;5.250;2023-08-30T09:34:00;17.41;;;12.3;;
62457;SDS011;48509;52.122;5.250;2023-08-30T09:37:20;14.9;;;12.0;;
62457;SDS011;48509;52.122;5.250;2023-08-30T09:38:57;13.6;;;12.0;;
62457;SDS011;48509;52.122;5.250;2023-08-30T09:40:33;14.6;;;11.9;;
62457;SDS011;48509;52.122;5.250;2023-08-30T09:42:09;15.1;;;13.5;;
62457;SDS011;48509;52.122;5.250;2023-08-30T09:45:22;17.2;;;14.5;;
62457;SDS011;48509;52.122;5.250;2023-08-30T09:46:58;18.61;;;16.0;;
62457;SDS011;48509;52.122;5.250;2023-08-30T09:48:34;14.4;;;12.7;;
62457;SDS011;48509;52.122;5.250;2023-08-30T09:51:54;19.3;;;14.6;;
62457;SDS011;48509;52.122;5.250;2023-08-30T09:53:31;18.7;;;16.0;;
62457;SDS011;48509;52.122;5.250;2023-08-30T09:55:13;18.2;;;16.3;;
62457;SDS011;48509;52.122;5.250;2023-08-30T09:56:50;18.7;;;16.8;;
62457;SDS011;48509;52.122;5.250;2023-08-30T10:00:04;21.6;;;17.3;;
62457;SDS011;48509;52.122;5.250;2023-08-30T10:01:42;18.3;;;16.5;;
62457;SDS011;48509;52.122;5.250;2023-08-30T10:03:19;16.8;;;14.8;;
62457;SDS011;48509;52.122;5.250;2023-08-30T10:04:57;20.2;;;16.5;;
62457;SDS011;48509;52.122;5.250;2023-08-30T10:08:12;17.5;;;14.7;;
62457;SDS011;48509;52.122;5.250;2023-08-30T10:09:50;20.0;;;17.91;;
62457;SDS011;48509;52.122;5.250;2023-08-30T10:11:27;20.7;;;16.61;;
62457;SDS011;48509;52.122;5.250;2023-08-30T10:14:41;17.91;;;16.2;;
62457;SDS011;48509;52.122;5.250;2023-08-30T10:16:18;19.91;;;17.8;;
62457;SDS011;48509;52.122;5.250;2023-08-30T10:17:57;19.5;;;17.41;;
62457;SDS011;48509;52.122;5.250;2023-08-30T10:19:34;20.7;;;18.2;;
62457;SDS011;48509;52.122;5.250;2023-08-30T10:22:55;20.7;;;17.91;;
62457;SDS011;48509;52.122;5.250;2023-08-30T10:24:35;20.9;;;18.8;;
62457;SDS011;48509;52.122;5.250;2023-08-30T10:26:15;18.61;;;16.7;;
62457;SDS011;48509;52.122;5.250;2023-08-30T10:29:31;18.3;;;16.4;;
62457;SDS011;48509;52.122;5.250;2023-08-30T10:31:10;17.61;;;15.7;;
62457;SDS011;48509;52.122;5.250;2023-08-30T10:32:48;14.2;;;12.7;;
62457;SDS011;48509;52.122;5.250;2023-08-30T10:34:31;15.5;;;12.7;;
62457;SDS011;48509;52.122;5.250;2023-08-30T10:37:53;14.5;;;11.9;;
62457;SDS011;48509;52.122;5.250;2023-08-30T10:39:33;12.6;;;8.1;;
62457;SDS011;48509;52.122;5.250;2023-08-30T10:41:11;10.1;;;8.1;;
62457;SDS011;48509;52.122;5.250;2023-08-30T10:42:47;10.21;;;8.0;;
62457;SDS011;48509;52.122;5.250;2023-08-30T10:46:10;8.31;;;6.5;;
62457;SDS011;48509;52.122;5.250;2023-08-30T10:47:46;7.1;;;5.11;;
62457;SDS011;48509;52.122;5.250;2023-08-30T10:49:38;9.81;;;5.0;;
62457;SDS011;48509;52.122;5.250;2023-08-30T10:51:20;7.7;;;4.61;;
62457;SDS011;48509;52.122;5.250;2023-08-30T10:54:36;9.1;;;4.91;;
62457;SDS011;48509;52.122;5.250;2023-08-30T10:56:13;8.5;;;4.7;;
62457;SDS011;48509;52.122;5.250;2023-08-30T10:57:57;9.9;;;4.61;;
62457;SDS011;48509;52.122;5.250;2023-08-30T10:59:35;10.8;;;3.9;;
62457;SDS011;48509;52.122;5.250;2023-08-30T11:02:48;7.3;;;4.2;;
62457;SDS011;48509;52.122;5.250;2023-08-30T11:04:26;7.9;;;3.7;;
62457;SDS011;48509;52.122;5.250;2023-08-30T11:06:02;7.7;;;4.0;;
62457;SDS011;48509;52.122;5.250;2023-08-30T11:09:15;6.0;;;3.8;;
62457;SDS011;48509;52.122;5.250;2023-08-30T11:10:59;8.9;;;4.0;;
62457;SDS011;48509;52.122;5.250;2023-08-30T11:12:39;8.81;;;4.1;;
62457;SDS011;48509;52.122;5.250;2023-08-30T11:14:17;10.0;;;3.8;;
62457;SDS011;48509;52.122;5.250;2023-08-30T11:17:35;10.5;;;4.3;;
62457;SDS011;48509;52.122;5.250;2023-08-30T11:19:11;6.9;;;3.7;;
62457;SDS011;48509;52.122;5.250;2023-08-30T11:20:47;8.5;;;3.8;;
62457;SDS011;48509;52.122;5.250;2023-08-30T11:22:23;10.1;;;4.3;;
62457;SDS011;48509;52.122;5.250;2023-08-30T11:25:39;8.71;;;3.9;;
62457;SDS011;48509;52.122;5.250;2023-08-30T11:27:16;9.9;;;4.0;;
62457;SDS011;48509;52.122;5.250;2023-08-30T11:28:53;10.8;;;3.6;;
62457;SDS011;48509;52.122;5.250;2023-08-30T11:32:06;9.31;;;3.9;;
62457;SDS011;48509;52.122;5.250;2023-08-30T11:33:49;10.4;;;4.0;;
62457;SDS011;48509;52.122;5.250;2023-08-30T11:35:25;9.71;;;4.2;;
62457;SDS011;48509;52.122;5.250;2023-08-30T11:37:01;8.5;;;3.5;;
62457;SDS011;48509;52.122;5.250;2023-08-30T11:40:14;7.8;;;3.5;;
62457;SDS011;48509;52.122;5.250;2023-08-30T11:41:50;9.1;;;4.3;;
62457;SDS011;48509;52.122;5.250;2023-08-30T11:43:26;6.9;;;3.6;;
62457;SDS011;48509;52.122;5.250;2023-08-30T11:46:40;8.9;;;3.6;;
62457;SDS011;48509;52.122;5.250;2023-08-30T11:48:16;7.6;;;3.6;;
62457;SDS011;48509;52.122;5.250;2023-08-30T11:49:53;10.7;;;3.9;;
62457;SDS011;48509;52.122;5.250;2023-08-30T11:53:09;12.4;;;3.6;;
62457;SDS011;48509;52.122;5.250;2023-08-30T11:54:45;9.21;;;3.5;;
62457;SDS011;48509;52.122;5.250;2023-08-30T11:56:23;9.5;;;3.5;;
62457;SDS011;48509;52.122;5.250;2023-08-30T11:58:00;8.2;;;2.8;;
62457;SDS011;48509;52.122;5.250;2023-08-30T12:01:14;17.61;;;3.4;;
62457;SDS011;48509;52.122;5.250;2023-08-30T12:02:50;11.1;;;3.5;;
62457;SDS011;48509;52.122;5.250;2023-08-30T12:04:26;7.1;;;2.9;;
62457;SDS011;48509;52.122;5.250;2023-08-30T12:07:46;8.5;;;2.8;;
62457;SDS011;48509;52.122;5.250;2023-08-30T12:09:22;6.9;;;3.5;;
62457;SDS011;48509;52.122;5.250;2023-08-30T12:10:58;11.3;;;3.1;;
62457;SDS011;48509;52.122;5.250;2023-08-30T12:12:34;8.2;;;3.0;;
62457;SDS011;48509;52.122;5.250;2023-08-30T12:15:46;7.2;;;2.8;;
62457;SDS011;48509;52.122;5.250;2023-08-30T12:17:22;7.6;;;3.3;;
62457;SDS011;48509;52.122;5.250;2023-08-30T12:19:06;7.7;;;3.1;;
62457;SDS011;48509;52.122;5.250;2023-08-30T12:22:35;12.2;;;2.7;;
62457;SDS011;48509;52.122;5.250;2023-08-30T12:24:12;7.6;;;2.8;;
62457;SDS011;48509;52.122;5.250;2023-08-30T12:25:58;8.1;;;2.9;;
62457;SDS011;48509;52.122;5.250;2023-08-30T12:27:36;9.81;;;2.6;;
62457;SDS011;48509;52.122;5.250;2023-08-30T12:29:15;13.8;;;3.2;;
62457;SDS011;48509;52.122;5.250;2023-08-30T12:32:27;6.9;;;2.8;;
62457;SDS011;48509;52.122;5.250;2023-08-30T12:34:03;11.0;;;3.0;;
62457;SDS011;48509;52.122;5.250;2023-08-30T12:35:40;4.7;;;2.31;;
62457;SDS011;48509;52.122;5.250;2023-08-30T12:38:52;8.0;;;2.5;;